EKCR weather

Christianshede
Silkeborg, Central Jutland, Denmark

Public forecast

Using degrees Celsius for public forecast. Weather courtesy of forecast.io.

Closest aviation weather report (METAR) to Christianshede

Closest report is Karup Airport, 14.6 nm (27.1 km) NW. Retrieved 2019/10/19 11:20 UTC (18 minutes ago):

EKKA 191120Z AUTO 18011KT 150V210 9999 BKN013/// 13/10 Q1002

Closest aviation forecast (TAF) to Christianshede

Closest forecast is Karup Airport, 14.6 nm (27.1 km) NW. Retrieved 2019/10/19 09:31 UTC (2 hours ago):

TAF EKKA 190829Z 1909/2009 18010KT 9999 BKN030 TEMPO 1909/1920 4000 SHRA BKN012 FEW020CB TEMPO 1920/2009 3000 BR -SHRA BKN006 SCT020TCU